sensor_id;sensor_type;location;lat;lon;timestamp;P1;durP1;ratioP1;P2;durP2;ratioP2
5149;SDS011;2593;52.466;13.436;2023-06-10T00:01:45;14.37;;;6.10;;
5149;SDS011;2593;52.466;13.436;2023-06-10T00:04:12;14.77;;;5.73;;
5149;SDS011;2593;52.466;13.436;2023-06-10T00:06:38;18.27;;;5.70;;
5149;SDS011;2593;52.466;13.436;2023-06-10T00:09:05;13.10;;;5.23;;
5149;SDS011;2593;52.466;13.436;2023-06-10T00:11:39;18.93;;;5.97;;
5149;SDS011;2593;52.466;13.436;2023-06-10T00:14:05;16.53;;;6.07;;
5149;SDS011;2593;52.466;13.436;2023-06-10T00:16:31;17.00;;;6.80;;
5149;SDS011;2593;52.466;13.436;2023-06-10T00:18:59;15.73;;;5.60;;
5149;SDS011;2593;52.466;13.436;2023-06-10T00:21:25;10.07;;;4.87;;
5149;SDS011;2593;52.466;13.436;2023-06-10T00:23:51;9.33;;;6.03;;
5149;SDS011;2593;52.466;13.436;2023-06-10T00:26:18;17.37;;;6.07;;
5149;SDS011;2593;52.466;13.436;2023-06-10T00:28:45;10.93;;;6.07;;
5149;SDS011;2593;52.466;13.436;2023-06-10T00:31:11;14.50;;;6.67;;
5149;SDS011;2593;52.466;13.436;2023-06-10T00:33:37;19.73;;;6.07;;
5149;SDS011;2593;52.466;13.436;2023-06-10T00:36:03;11.37;;;5.93;;
5149;SDS011;2593;52.466;13.436;2023-06-10T00:38:29;13.53;;;5.60;;
5149;SDS011;2593;52.466;13.436;2023-06-10T00:40:56;11.20;;;5.53;;
5149;SDS011;2593;52.466;13.436;2023-06-10T00:43:22;15.20;;;6.07;;
5149;SDS011;2593;52.466;13.436;2023-06-10T00:45:49;16.43;;;6.63;;
5149;SDS011;2593;52.466;13.436;2023-06-10T00:48:15;12.07;;;5.13;;
5149;SDS011;2593;52.466;13.436;2023-06-10T00:50:41;12.20;;;4.93;;
5149;SDS011;2593;52.466;13.436;2023-06-10T00:53:07;33.87;;;5.83;;
5149;SDS011;2593;52.466;13.436;2023-06-10T00:55:34;14.07;;;5.10;;
5149;SDS011;2593;52.466;13.436;2023-06-10T00:58:01;13.40;;;5.47;;
5149;SDS011;2593;52.466;13.436;2023-06-10T01:00:28;12.40;;;5.57;;
5149;SDS011;2593;52.466;13.436;2023-06-10T01:02:54;18.50;;;5.67;;
5149;SDS011;2593;52.466;13.436;2023-06-10T01:05:21;12.67;;;5.60;;
5149;SDS011;2593;52.466;13.436;2023-06-10T01:10:33;20.87;;;6.27;;
5149;SDS011;2593;52.466;13.436;2023-06-10T01:13:02;20.23;;;6.70;;
5149;SDS011;2593;52.466;13.436;2023-06-10T01:15:29;22.23;;;7.10;;
5149;SDS011;2593;52.466;13.436;2023-06-10T01:20:23;12.33;;;5.40;;
5149;SDS011;2593;52.466;13.436;2023-06-10T01:22:49;21.90;;;6.20;;
5149;SDS011;2593;52.466;13.436;2023-06-10T01:25:16;11.20;;;5.73;;
5149;SDS011;2593;52.466;13.436;2023-06-10T01:27:42;19.90;;;5.53;;
5149;SDS011;2593;52.466;13.436;2023-06-10T01:30:11;14.87;;;6.27;;
5149;SDS011;2593;52.466;13.436;2023-06-10T01:32:43;18.27;;;6.73;;
5149;SDS011;2593;52.466;13.436;2023-06-10T01:35:10;15.90;;;6.77;;
5149;SDS011;2593;52.466;13.436;2023-06-10T01:37:37;14.10;;;6.50;;
5149;SDS011;2593;52.466;13.436;2023-06-10T01:40:05;22.10;;;5.33;;
5149;SDS011;2593;52.466;13.436;2023-06-10T01:42:31;20.30;;;6.73;;
5149;SDS011;2593;52.466;13.436;2023-06-10T01:44:58;12.50;;;5.93;;
5149;SDS011;2593;52.466;13.436;2023-06-10T01:47:24;11.57;;;5.90;;
5149;SDS011;2593;52.466;13.436;2023-06-10T01:49:50;12.57;;;6.40;;
5149;SDS011;2593;52.466;13.436;2023-06-10T01:52:16;16.47;;;6.10;;
5149;SDS011;2593;52.466;13.436;2023-06-10T01:54:42;19.17;;;6.70;;
5149;SDS011;2593;52.466;13.436;2023-06-10T01:57:08;14.77;;;5.50;;
5149;SDS011;2593;52.466;13.436;2023-06-10T01:59:34;14.53;;;6.50;;
5149;SDS011;2593;52.466;13.436;2023-06-10T02:02:02;15.87;;;5.50;;
5149;SDS011;2593;52.466;13.436;2023-06-10T02:04:28;13.87;;;5.87;;
5149;SDS011;2593;52.466;13.436;2023-06-10T02:06:55;16.53;;;6.47;;
5149;SDS011;2593;52.466;13.436;2023-06-10T02:09:21;20.07;;;6.03;;
5149;SDS011;2593;52.466;13.436;2023-06-10T02:11:48;20.53;;;6.03;;
5149;SDS011;2593;52.466;13.436;2023-06-10T02:14:14;9.87;;;6.03;;
5149;SDS011;2593;52.466;13.436;2023-06-10T02:16:40;18.40;;;6.90;;
5149;SDS011;2593;52.466;13.436;2023-06-10T02:19:06;15.87;;;6.57;;
5149;SDS011;2593;52.466;13.436;2023-06-10T02:21:32;20.90;;;5.70;;
5149;SDS011;2593;52.466;13.436;2023-06-10T02:24:01;16.17;;;5.80;;
5149;SDS011;2593;52.466;13.436;2023-06-10T02:26:28;13.27;;;5.60;;
5149;SDS011;2593;52.466;13.436;2023-06-10T02:28:54;13.97;;;5.40;;
5149;SDS011;2593;52.466;13.436;2023-06-10T02:31:20;18.67;;;6.27;;
5149;SDS011;2593;52.466;13.436;2023-06-10T02:33:46;16.80;;;6.17;;
5149;SDS011;2593;52.466;13.436;2023-06-10T02:36:12;15.83;;;6.77;;
5149;SDS011;2593;52.466;13.436;2023-06-10T02:38:40;17.97;;;7.10;;
5149;SDS011;2593;52.466;13.436;2023-06-10T02:41:06;14.87;;;5.53;;
5149;SDS011;2593;52.466;13.436;2023-06-10T02:43:32;13.80;;;6.40;;
5149;SDS011;2593;52.466;13.436;2023-06-10T02:45:58;18.00;;;6.47;;
5149;SDS011;2593;52.466;13.436;2023-06-10T02:48:24;23.37;;;7.23;;
5149;SDS011;2593;52.466;13.436;2023-06-10T02:50:51;12.17;;;6.60;;
5149;SDS011;2593;52.466;13.436;2023-06-10T02:53:17;12.90;;;5.60;;
5149;SDS011;2593;52.466;13.436;2023-06-10T02:55:43;17.77;;;5.93;;
5149;SDS011;2593;52.466;13.436;2023-06-10T02:58:09;20.53;;;6.60;;
5149;SDS011;2593;52.466;13.436;2023-06-10T03:00:35;12.50;;;6.30;;
5149;SDS011;2593;52.466;13.436;2023-06-10T03:03:02;11.50;;;6.20;;
5149;SDS011;2593;52.466;13.436;2023-06-10T03:05:30;11.50;;;5.47;;
5149;SDS011;2593;52.466;13.436;2023-06-10T03:07:56;19.00;;;7.00;;
5149;SDS011;2593;52.466;13.436;2023-06-10T03:10:22;28.80;;;6.23;;
5149;SDS011;2593;52.466;13.436;2023-06-10T03:12:48;17.47;;;6.70;;
5149;SDS011;2593;52.466;13.436;2023-06-10T03:15:14;12.03;;;6.77;;
5149;SDS011;2593;52.466;13.436;2023-06-10T03:17:40;16.77;;;6.87;;
5149;SDS011;2593;52.466;13.436;2023-06-10T03:20:07;13.63;;;6.80;;
5149;SDS011;2593;52.466;13.436;2023-06-10T03:22:35;19.37;;;6.73;;
5149;SDS011;2593;52.466;13.436;2023-06-10T03:25:02;17.77;;;6.57;;
5149;SDS011;2593;52.466;13.436;2023-06-10T03:27:29;26.07;;;6.80;;
5149;SDS011;2593;52.466;13.436;2023-06-10T03:29:55;20.67;;;7.00;;
5149;SDS011;2593;52.466;13.436;2023-06-10T03:32:21;18.17;;;6.87;;
5149;SDS011;2593;52.466;13.436;2023-06-10T03:34:47;15.80;;;6.37;;
5149;SDS011;2593;52.466;13.436;2023-06-10T03:37:13;17.60;;;6.40;;
5149;SDS011;2593;52.466;13.436;2023-06-10T03:39:39;14.07;;;6.93;;
5149;SDS011;2593;52.466;13.436;2023-06-10T03:42:06;14.60;;;6.53;;
5149;SDS011;2593;52.466;13.436;2023-06-10T03:44:32;35.13;;;6.30;;
5149;SDS011;2593;52.466;13.436;2023-06-10T03:46:58;12.90;;;6.77;;
5149;SDS011;2593;52.466;13.436;2023-06-10T03:49:24;24.90;;;7.40;;
5149;SDS011;2593;52.466;13.436;2023-06-10T03:51:53;16.50;;;6.80;;
5149;SDS011;2593;52.466;13.436;2023-06-10T03:54:20;20.83;;;6.43;;
5149;SDS011;2593;52.466;13.436;2023-06-10T03:56:46;14.37;;;6.47;;
5149;SDS011;2593;52.466;13.436;2023-06-10T03:59:13;15.63;;;7.17;;
5149;SDS011;2593;52.466;13.436;2023-06-10T04:01:39;32.10;;;7.20;;
5149;SDS011;2593;52.466;13.436;2023-06-10T04:04:06;19.43;;;7.30;;
5149;SDS011;2593;52.466;13.436;2023-06-10T04:06:32;14.40;;;6.00;;
5149;SDS011;2593;52.466;13.436;2023-06-10T04:08:58;19.13;;;5.67;;
5149;SDS011;2593;52.466;13.436;2023-06-10T04:11:24;14.80;;;6.87;;
5149;SDS011;2593;52.466;13.436;2023-06-10T04:13:50;18.73;;;7.00;;
5149;SDS011;2593;52.466;13.436;2023-06-10T04:16:17;23.57;;;7.70;;
5149;SDS011;2593;52.466;13.436;2023-06-10T04:18:43;12.03;;;6.00;;
5149;SDS011;2593;52.466;13.436;2023-06-10T04:21:09;15.67;;;6.90;;
5149;SDS011;2593;52.466;13.436;2023-06-10T04:23:35;22.27;;;7.10;;
5149;SDS011;2593;52.466;13.436;2023-06-10T04:26:04;21.73;;;8.30;;
5149;SDS011;2593;52.466;13.436;2023-06-10T04:28:31;14.80;;;7.53;;
5149;SDS011;2593;52.466;13.436;2023-06-10T04:30:57;14.73;;;6.87;;
5149;SDS011;2593;52.466;13.436;2023-06-10T04:33:23;14.97;;;7.37;;
5149;SDS011;2593;52.466;13.436;2023-06-10T04:35:49;13.13;;;7.33;;
5149;SDS011;2593;52.466;13.436;2023-06-10T04:38:16;28.30;;;7.90;;
5149;SDS011;2593;52.466;13.436;2023-06-10T04:40:42;19.80;;;7.40;;
5149;SDS011;2593;52.466;13.436;2023-06-10T04:43:08;20.30;;;8.13;;
5149;SDS011;2593;52.466;13.436;2023-06-10T04:45:34;14.73;;;7.87;;
5149;SDS011;2593;52.466;13.436;2023-06-10T04:48:00;14.57;;;7.90;;
5149;SDS011;2593;52.466;13.436;2023-06-10T04:50:26;17.23;;;8.20;;
5149;SDS011;2593;52.466;13.436;2023-06-10T04:52:52;19.77;;;7.00;;
5149;SDS011;2593;52.466;13.436;2023-06-10T04:55:22;28.40;;;7.83;;
5149;SDS011;2593;52.466;13.436;2023-06-10T04:57:48;12.30;;;6.97;;
5149;SDS011;2593;52.466;13.436;2023-06-10T05:00:15;22.90;;;7.87;;
5149;SDS011;2593;52.466;13.436;2023-06-10T05:02:41;11.30;;;7.07;;
5149;SDS011;2593;52.466;13.436;2023-06-10T05:05:07;19.67;;;8.30;;
5149;SDS011;2593;52.466;13.436;2023-06-10T05:07:33;22.80;;;7.37;;
5149;SDS011;2593;52.466;13.436;2023-06-10T05:09:59;26.00;;;7.93;;
5149;SDS011;2593;52.466;13.436;2023-06-10T05:12:26;26.50;;;9.50;;
5149;SDS011;2593;52.466;13.436;2023-06-10T05:14:52;19.07;;;8.50;;
5149;SDS011;2593;52.466;13.436;2023-06-10T05:17:18;14.97;;;7.37;;
5149;SDS011;2593;52.466;13.436;2023-06-10T05:19:44;28.13;;;7.43;;
5149;SDS011;2593;52.466;13.436;2023-06-10T05:22:12;29.13;;;8.60;;
5149;SDS011;2593;52.466;13.436;2023-06-10T05:24:39;15.67;;;7.73;;
5149;SDS011;2593;52.466;13.436;2023-06-10T05:27:05;13.70;;;6.40;;
5149;SDS011;2593;52.466;13.436;2023-06-10T05:29:31;13.13;;;7.50;;
5149;SDS011;2593;52.466;13.436;2023-06-10T05:31:58;15.13;;;7.20;;
5149;SDS011;2593;52.466;13.436;2023-06-10T05:34:27;24.13;;;8.37;;
5149;SDS011;2593;52.466;13.436;2023-06-10T05:36:54;11.57;;;7.00;;
5149;SDS011;2593;52.466;13.436;2023-06-10T05:39:20;16.50;;;7.30;;
5149;SDS011;2593;52.466;13.436;2023-06-10T05:41:46;11.60;;;7.47;;
5149;SDS011;2593;52.466;13.436;2023-06-10T05:44:12;20.47;;;8.10;;
5149;SDS011;2593;52.466;13.436;2023-06-10T05:46:38;27.63;;;8.50;;
5149;SDS011;2593;52.466;13.436;2023-06-10T05:49:04;15.17;;;7.80;;
5149;SDS011;2593;52.466;13.436;2023-06-10T05:51:30;15.93;;;7.33;;
5149;SDS011;2593;52.466;13.436;2023-06-10T05:53:56;15.20;;;7.87;;
5149;SDS011;2593;52.466;13.436;2023-06-10T05:56:22;13.67;;;8.43;;
5149;SDS011;2593;52.466;13.436;2023-06-10T05:58:48;28.77;;;7.90;;
5149;SDS011;2593;52.466;13.436;2023-06-10T06:01:14;14.37;;;8.00;;
5149;SDS011;2593;52.466;13.436;2023-06-10T06:03:40;18.90;;;7.17;;
5149;SDS011;2593;52.466;13.436;2023-06-10T06:06:06;13.03;;;7.97;;
5149;SDS011;2593;52.466;13.436;2023-06-10T06:08:32;22.53;;;8.10;;
5149;SDS011;2593;52.466;13.436;2023-06-10T06:10:58;19.70;;;7.77;;
5149;SDS011;2593;52.466;13.436;2023-06-10T06:13:25;22.57;;;7.40;;
5149;SDS011;2593;52.466;13.436;2023-06-10T06:15:51;10.13;;;6.60;;
5149;SDS011;2593;52.466;13.436;2023-06-10T06:18:17;19.93;;;8.93;;
5149;SDS011;2593;52.466;13.436;2023-06-10T06:20:43;18.30;;;7.20;;
5149;SDS011;2593;52.466;13.436;2023-06-10T06:23:09;14.20;;;8.37;;
5149;SDS011;2593;52.466;13.436;2023-06-10T06:25:36;11.50;;;8.23;;
5149;SDS011;2593;52.466;13.436;2023-06-10T06:28:05;14.57;;;8.50;;
5149;SDS011;2593;52.466;13.436;2023-06-10T06:30:31;17.23;;;8.10;;
5149;SDS011;2593;52.466;13.436;2023-06-10T06:32:57;17.97;;;8.10;;
5149;SDS011;2593;52.466;13.436;2023-06-10T06:35:24;17.30;;;8.83;;
5149;SDS011;2593;52.466;13.436;2023-06-10T06:37:50;13.90;;;8.20;;
5149;SDS011;2593;52.466;13.436;2023-06-10T06:40:16;11.63;;;7.80;;
5149;SDS011;2593;52.466;13.436;2023-06-10T06:42:42;17.50;;;9.07;;
5149;SDS011;2593;52.466;13.436;2023-06-10T06:45:08;20.43;;;7.83;;
5149;SDS011;2593;52.466;13.436;2023-06-10T06:47:34;27.90;;;8.80;;
5149;SDS011;2593;52.466;13.436;2023-06-10T06:50:00;15.53;;;7.90;;
5149;SDS011;2593;52.466;13.436;2023-06-10T06:52:27;18.33;;;8.30;;
5149;SDS011;2593;52.466;13.436;2023-06-10T06:54:53;21.80;;;8.77;;
5149;SDS011;2593;52.466;13.436;2023-06-10T06:57:19;10.77;;;8.50;;
5149;SDS011;2593;52.466;13.436;2023-06-10T06:59:45;16.33;;;7.80;;
5149;SDS011;2593;52.466;13.436;2023-06-10T07:02:11;18.40;;;7.63;;
5149;SDS011;2593;52.466;13.436;2023-06-10T07:04:37;18.73;;;7.83;;
5149;SDS011;2593;52.466;13.436;2023-06-10T07:07:06;14.83;;;8.50;;
5149;SDS011;2593;52.466;13.436;2023-06-10T07:09:33;12.47;;;8.00;;
5149;SDS011;2593;52.466;13.436;2023-06-10T07:12:00;10.77;;;8.00;;
5149;SDS011;2593;52.466;13.436;2023-06-10T07:14:26;15.47;;;8.33;;
5149;SDS011;2593;52.466;13.436;2023-06-10T07:16:52;18.27;;;8.87;;
5149;SDS011;2593;52.466;13.436;2023-06-10T07:19:18;18.73;;;8.73;;
5149;SDS011;2593;52.466;13.436;2023-06-10T07:21:44;20.07;;;8.90;;
5149;SDS011;2593;52.466;13.436;2023-06-10T07:24:10;21.37;;;8.17;;
5149;SDS011;2593;52.466;13.436;2023-06-10T07:26:36;16.73;;;7.20;;
5149;SDS011;2593;52.466;13.436;2023-06-10T07:29:02;17.07;;;8.23;;
5149;SDS011;2593;52.466;13.436;2023-06-10T07:31:28;17.47;;;8.33;;
5149;SDS011;2593;52.466;13.436;2023-06-10T07:33:54;20.87;;;8.67;;
5149;SDS011;2593;52.466;13.436;2023-06-10T07:36:20;17.80;;;8.40;;
5149;SDS011;2593;52.466;13.436;2023-06-10T07:38:46;15.40;;;9.70;;
5149;SDS011;2593;52.466;13.436;2023-06-10T07:41:12;16.83;;;8.90;;
5149;SDS011;2593;52.466;13.436;2023-06-10T07:43:39;14.23;;;7.30;;
5149;SDS011;2593;52.466;13.436;2023-06-10T07:46:05;13.70;;;7.83;;
5149;SDS011;2593;52.466;13.436;2023-06-10T07:48:31;16.43;;;8.77;;
5149;SDS011;2593;52.466;13.436;2023-06-10T07:50:57;17.23;;;8.43;;
5149;SDS011;2593;52.466;13.436;2023-06-10T07:53:23;12.40;;;8.33;;
5149;SDS011;2593;52.466;13.436;2023-06-10T07:55:49;15.37;;;7.63;;
5149;SDS011;2593;52.466;13.436;2023-06-10T07:58:15;17.40;;;8.13;;
5149;SDS011;2593;52.466;13.436;2023-06-10T08:00:41;12.87;;;7.50;;
5149;SDS011;2593;52.466;13.436;2023-06-10T08:03:07;30.07;;;8.00;;
5149;SDS011;2593;52.466;13.436;2023-06-10T08:05:33;17.83;;;7.77;;
5149;SDS011;2593;52.466;13.436;2023-06-10T08:08:00;19.87;;;7.87;;
5149;SDS011;2593;52.466;13.436;2023-06-10T08:10:26;39.53;;;9.10;;
5149;SDS011;2593;52.466;13.436;2023-06-10T08:12:52;18.57;;;8.60;;
5149;SDS011;2593;52.466;13.436;2023-06-10T08:15:18;21.27;;;8.30;;
5149;SDS011;2593;52.466;13.436;2023-06-10T08:17:44;26.43;;;8.60;;
5149;SDS011;2593;52.466;13.436;2023-06-10T08:20:10;17.93;;;8.47;;
5149;SDS011;2593;52.466;13.436;2023-06-10T08:22:36;16.67;;;7.93;;
5149;SDS011;2593;52.466;13.436;2023-06-10T08:25:02;17.37;;;8.80;;
5149;SDS011;2593;52.466;13.436;2023-06-10T08:27:28;14.60;;;9.23;;
5149;SDS011;2593;52.466;13.436;2023-06-10T08:29:54;15.17;;;8.00;;
5149;SDS011;2593;52.466;13.436;2023-06-10T08:32:20;14.40;;;8.50;;
5149;SDS011;2593;52.466;13.436;2023-06-10T08:34:46;18.20;;;7.70;;
5149;SDS011;2593;52.466;13.436;2023-06-10T08:37:12;12.68;;;8.18;;
5149;SDS011;2593;52.466;13.436;2023-06-10T08:39:39;11.88;;;7.43;;
5149;SDS011;2593;52.466;13.436;2023-06-10T08:44:39;8.00;;;5.85;;
5149;SDS011;2593;52.466;13.436;2023-06-10T08:47:12;14.02;;;6.82;;
5149;SDS011;2593;52.466;13.436;2023-06-10T08:49:41;15.85;;;6.65;;
5149;SDS011;2593;52.466;13.436;2023-06-10T08:52:08;10.57;;;7.70;;
5149;SDS011;2593;52.466;13.436;2023-06-10T08:54:37;17.75;;;7.53;;
5149;SDS011;2593;52.466;13.436;2023-06-10T08:57:05;13.40;;;7.50;;
5149;SDS011;2593;52.466;13.436;2023-06-10T08:59:31;11.13;;;6.68;;
5149;SDS011;2593;52.466;13.436;2023-06-10T09:01:58;9.95;;;6.47;;
5149;SDS011;2593;52.466;13.436;2023-06-10T09:04:24;24.70;;;7.75;;
5149;SDS011;2593;52.466;13.436;2023-06-10T09:06:50;9.75;;;6.25;;
5149;SDS011;2593;52.466;13.436;2023-06-10T09:09:16;14.48;;;7.18;;
5149;SDS011;2593;52.466;13.436;2023-06-10T09:11:45;15.85;;;6.75;;
5149;SDS011;2593;52.466;13.436;2023-06-10T09:14:11;13.40;;;6.40;;
5149;SDS011;2593;52.466;13.436;2023-06-10T09:16:38;10.32;;;6.38;;
5149;SDS011;2593;52.466;13.436;2023-06-10T09:19:04;12.52;;;7.20;;
5149;SDS011;2593;52.466;13.436;2023-06-10T09:21:33;8.63;;;5.88;;
5149;SDS011;2593;52.466;13.436;2023-06-10T09:23:59;11.85;;;5.55;;
5149;SDS011;2593;52.466;13.436;2023-06-10T09:26:28;15.75;;;5.63;;
5149;SDS011;2593;52.466;13.436;2023-06-10T09:29:13;13.88;;;8.45;;
5149;SDS011;2593;52.466;13.436;2023-06-10T09:31:39;9.18;;;6.65;;
5149;SDS011;2593;52.466;13.436;2023-06-10T09:34:12;13.65;;;6.97;;
5149;SDS011;2593;52.466;13.436;2023-06-10T09:36:38;12.90;;;6.20;;
5149;SDS011;2593;52.466;13.436;2023-06-10T09:39:05;9.15;;;6.20;;
5149;SDS011;2593;52.466;13.436;2023-06-10T09:41:32;11.82;;;6.80;;
5149;SDS011;2593;52.466;13.436;2023-06-10T09:43:59;12.90;;;6.50;;
5149;SDS011;2593;52.466;13.436;2023-06-10T09:46:25;19.40;;;7.45;;
5149;SDS011;2593;52.466;13.436;2023-06-10T09:48:57;9.10;;;6.63;;
5149;SDS011;2593;52.466;13.436;2023-06-10T09:51:23;13.05;;;6.63;;
5149;SDS011;2593;52.466;13.436;2023-06-10T09:53:52;13.98;;;7.25;;
5149;SDS011;2593;52.466;13.436;2023-06-10T09:56:19;17.17;;;6.97;;
5149;SDS011;2593;52.466;13.436;2023-06-10T09:58:45;10.07;;;6.47;;
5149;SDS011;2593;52.466;13.436;2023-06-10T10:01:12;7.00;;;6.28;;
5149;SDS011;2593;52.466;13.436;2023-06-10T10:03:51;18.83;;;7.32;;
5149;SDS011;2593;52.466;13.436;2023-06-10T10:06:18;11.60;;;7.32;;
5149;SDS011;2593;52.466;13.436;2023-06-10T10:08:46;12.65;;;8.98;;
5149;SDS011;2593;52.466;13.436;2023-06-10T10:11:12;22.02;;;7.18;;
5149;SDS011;2593;52.466;13.436;2023-06-10T10:13:49;16.42;;;8.60;;
5149;SDS011;2593;52.466;13.436;2023-06-10T10:16:30;18.75;;;7.72;;
5149;SDS011;2593;52.466;13.436;2023-06-10T10:19:01;12.25;;;8.27;;
5149;SDS011;2593;52.466;13.436;2023-06-10T10:21:29;10.60;;;7.60;;
5149;SDS011;2593;52.466;13.436;2023-06-10T10:26:23;16.83;;;7.97;;
5149;SDS011;2593;52.466;13.436;2023-06-10T10:28:53;8.13;;;7.10;;
5149;SDS011;2593;52.466;13.436;2023-06-10T10:31:23;17.03;;;8.60;;
5149;SDS011;2593;52.466;13.436;2023-06-10T10:33:54;16.38;;;7.32;;
5149;SDS011;2593;52.466;13.436;2023-06-10T10:36:21;16.42;;;7.82;;
5149;SDS011;2593;52.466;13.436;2023-06-10T10:38:48;12.88;;;7.32;;
5149;SDS011;2593;52.466;13.436;2023-06-10T10:41:17;10.45;;;6.15;;
5149;SDS011;2593;52.466;13.436;2023-06-10T10:43:44;12.05;;;5.60;;
5149;SDS011;2593;52.466;13.436;2023-06-10T10:46:14;13.73;;;5.72;;
5149;SDS011;2593;52.466;13.436;2023-06-10T10:48:40;16.15;;;6.05;;
5149;SDS011;2593;52.466;13.436;2023-06-10T10:51:07;7.90;;;4.90;;
5149;SDS011;2593;52.466;13.436;2023-06-10T10:53:33;6.18;;;5.38;;
5149;SDS011;2593;52.466;13.436;2023-06-10T10:56:12;7.55;;;5.35;;
5149;SDS011;2593;52.466;13.436;2023-06-10T10:58:39;9.10;;;4.43;;
5149;SDS011;2593;52.466;13.436;2023-06-10T11:01:11;5.37;;;4.87;;
5149;SDS011;2593;52.466;13.436;2023-06-10T11:03:45;20.02;;;5.40;;
5149;SDS011;2593;52.466;13.436;2023-06-10T11:06:12;6.45;;;5.22;;
5149;SDS011;2593;52.466;13.436;2023-06-10T11:11:18;13.15;;;8.38;;
5149;SDS011;2593;52.466;13.436;2023-06-10T11:13:58;9.75;;;7.00;;
5149;SDS011;2593;52.466;13.436;2023-06-10T11:16:29;10.13;;;6.05;;
5149;SDS011;2593;52.466;13.436;2023-06-10T11:18:55;16.38;;;8.20;;
5149;SDS011;2593;52.466;13.436;2023-06-10T11:21:25;9.25;;;7.13;;
5149;SDS011;2593;52.466;13.436;2023-06-10T11:23:51;13.80;;;8.85;;
5149;SDS011;2593;52.466;13.436;2023-06-10T11:31:25;9.10;;;6.65;;
5149;SDS011;2593;52.466;13.436;2023-06-10T11:33:52;10.88;;;7.05;;
5149;SDS011;2593;52.466;13.436;2023-06-10T11:36:19;9.85;;;6.28;;
5149;SDS011;2593;52.466;13.436;2023-06-10T11:38:45;8.23;;;6.45;;
5149;SDS011;2593;52.466;13.436;2023-06-10T11:41:11;8.95;;;6.55;;
5149;SDS011;2593;52.466;13.436;2023-06-10T11:43:42;12.98;;;6.97;;
5149;SDS011;2593;52.466;13.436;2023-06-10T11:46:09;14.45;;;6.65;;
5149;SDS011;2593;52.466;13.436;2023-06-10T11:48:35;10.85;;;6.55;;
5149;SDS011;2593;52.466;13.436;2023-06-10T11:51:05;14.80;;;6.95;;
5149;SDS011;2593;52.466;13.436;2023-06-10T11:53:31;8.95;;;6.53;;
5149;SDS011;2593;52.466;13.436;2023-06-10T11:55:57;7.13;;;4.93;;
5149;SDS011;2593;52.466;13.436;2023-06-10T11:58:24;6.05;;;5.55;;
5149;SDS011;2593;52.466;13.436;2023-06-10T12:00:54;15.40;;;5.80;;
5149;SDS011;2593;52.466;13.436;2023-06-10T12:03:23;15.20;;;7.40;;
5149;SDS011;2593;52.466;13.436;2023-06-10T12:05:56;12.00;;;6.68;;
5149;SDS011;2593;52.466;13.436;2023-06-10T12:08:22;8.85;;;5.38;;
5149;SDS011;2593;52.466;13.436;2023-06-10T12:10:48;8.50;;;5.60;;
5149;SDS011;2593;52.466;13.436;2023-06-10T12:13:15;7.13;;;5.80;;
5149;SDS011;2593;52.466;13.436;2023-06-10T12:15:42;11.83;;;5.00;;
5149;SDS011;2593;52.466;13.436;2023-06-10T12:18:15;8.00;;;5.10;;
5149;SDS011;2593;52.466;13.436;2023-06-10T12:20:42;7.17;;;5.30;;
5149;SDS011;2593;52.466;13.436;2023-06-10T12:23:09;7.30;;;6.50;;
5149;SDS011;2593;52.466;13.436;2023-06-10T12:25:35;7.90;;;5.87;;
5149;SDS011;2593;52.466;13.436;2023-06-10T12:28:04;13.70;;;6.90;;
5149;SDS011;2593;52.466;13.436;2023-06-10T12:30:30;11.27;;;6.90;;
5149;SDS011;2593;52.466;13.436;2023-06-10T12:32:57;37.27;;;7.30;;
5149;SDS011;2593;52.466;13.436;2023-06-10T12:35:24;11.40;;;7.50;;
5149;SDS011;2593;52.466;13.436;2023-06-10T12:40:29;10.23;;;7.03;;
5149;SDS011;2593;52.466;13.436;2023-06-10T12:42:56;17.77;;;8.30;;
5149;SDS011;2593;52.466;13.436;2023-06-10T12:45:31;17.53;;;7.70;;
5149;SDS011;2593;52.466;13.436;2023-06-10T12:48:07;8.83;;;7.93;;
5149;SDS011;2593;52.466;13.436;2023-06-10T12:50:40;12.53;;;7.87;;
5149;SDS011;2593;52.466;13.436;2023-06-10T12:53:08;13.67;;;8.17;;
5149;SDS011;2593;52.466;13.436;2023-06-10T12:55:36;17.20;;;10.70;;
5149;SDS011;2593;52.466;13.436;2023-06-10T12:58:02;22.33;;;10.90;;
5149;SDS011;2593;52.466;13.436;2023-06-10T13:00:28;16.30;;;8.63;;
5149;SDS011;2593;52.466;13.436;2023-06-10T13:02:59;24.67;;;8.73;;
5149;SDS011;2593;52.466;13.436;2023-06-10T13:05:26;11.87;;;9.40;;
5149;SDS011;2593;52.466;13.436;2023-06-10T13:07:54;20.93;;;8.20;;
5149;SDS011;2593;52.466;13.436;2023-06-10T13:10:20;12.02;;;8.82;;
5149;SDS011;2593;52.466;13.436;2023-06-10T13:12:46;15.85;;;7.82;;
5149;SDS011;2593;52.466;13.436;2023-06-10T13:15:13;18.90;;;8.90;;
5149;SDS011;2593;52.466;13.436;2023-06-10T13:17:45;20.17;;;10.27;;
5149;SDS011;2593;52.466;13.436;2023-06-10T13:20:15;10.90;;;8.65;;
5149;SDS011;2593;52.466;13.436;2023-06-10T13:22:42;14.70;;;8.65;;
5149;SDS011;2593;52.466;13.436;2023-06-10T13:25:08;15.05;;;7.30;;
5149;SDS011;2593;52.466;13.436;2023-06-10T13:27:35;10.25;;;8.27;;
5149;SDS011;2593;52.466;13.436;2023-06-10T13:30:04;13.60;;;8.25;;
5149;SDS011;2593;52.466;13.436;2023-06-10T13:32:30;8.85;;;7.72;;
5149;SDS011;2593;52.466;13.436;2023-06-10T13:34:56;8.27;;;7.47;;
5149;SDS011;2593;52.466;13.436;2023-06-10T13:37:22;7.80;;;7.00;;
5149;SDS011;2593;52.466;13.436;2023-06-10T13:39:49;18.80;;;7.40;;
5149;SDS011;2593;52.466;13.436;2023-06-10T13:42:19;13.20;;;7.32;;
5149;SDS011;2593;52.466;13.436;2023-06-10T13:44:45;20.45;;;8.27;;
5149;SDS011;2593;52.466;13.436;2023-06-10T13:47:12;16.13;;;8.68;;
5149;SDS011;2593;52.466;13.436;2023-06-10T13:49:38;9.82;;;8.02;;
5149;SDS011;2593;52.466;13.436;2023-06-10T13:52:05;10.63;;;7.80;;
5149;SDS011;2593;52.466;13.436;2023-06-10T13:54:31;6.85;;;6.15;;
5149;SDS011;2593;52.466;13.436;2023-06-10T13:56:57;10.15;;;6.80;;
5149;SDS011;2593;52.466;13.436;2023-06-10T13:59:25;9.23;;;6.83;;
5149;SDS011;2593;52.466;13.436;2023-06-10T14:01:51;12.52;;;7.85;;
5149;SDS011;2593;52.466;13.436;2023-06-10T14:04:17;11.43;;;7.72;;
5149;SDS011;2593;52.466;13.436;2023-06-10T14:06:43;13.00;;;7.95;;
5149;SDS011;2593;52.466;13.436;2023-06-10T14:09:09;12.48;;;7.80;;
5149;SDS011;2593;52.466;13.436;2023-06-10T14:11:35;11.68;;;6.55;;
5149;SDS011;2593;52.466;13.436;2023-06-10T14:14:01;11.10;;;7.45;;
5149;SDS011;2593;52.466;13.436;2023-06-10T14:16:28;13.32;;;7.40;;
5149;SDS011;2593;52.466;13.436;2023-06-10T14:18:54;11.70;;;7.00;;
5149;SDS011;2593;52.466;13.436;2023-06-10T14:21:20;7.78;;;6.97;;
5149;SDS011;2593;52.466;13.436;2023-06-10T14:23:46;18.45;;;7.55;;
5149;SDS011;2593;52.466;13.436;2023-06-10T14:26:13;25.80;;;7.60;;
5149;SDS011;2593;52.466;13.436;2023-06-10T14:28:40;14.93;;;6.10;;
5149;SDS011;2593;52.466;13.436;2023-06-10T14:31:06;7.67;;;6.33;;
5149;SDS011;2593;52.466;13.436;2023-06-10T14:33:32;14.50;;;6.57;;
5149;SDS011;2593;52.466;13.436;2023-06-10T14:35:59;12.77;;;7.87;;
5149;SDS011;2593;52.466;13.436;2023-06-10T14:38:25;10.47;;;6.40;;
5149;SDS011;2593;52.466;13.436;2023-06-10T14:40:51;14.93;;;7.50;;
5149;SDS011;2593;52.466;13.436;2023-06-10T14:43:18;8.17;;;7.20;;
5149;SDS011;2593;52.466;13.436;2023-06-10T14:45:44;10.37;;;6.63;;
5149;SDS011;2593;52.466;13.436;2023-06-10T14:48:10;12.53;;;6.30;;
5149;SDS011;2593;52.466;13.436;2023-06-10T14:50:37;14.50;;;6.20;;
5149;SDS011;2593;52.466;13.436;2023-06-10T14:53:05;11.77;;;6.47;;
5149;SDS011;2593;52.466;13.436;2023-06-10T14:55:31;8.03;;;6.30;;
5149;SDS011;2593;52.466;13.436;2023-06-10T14:57:57;9.73;;;6.37;;
5149;SDS011;2593;52.466;13.436;2023-06-10T15:00:23;13.23;;;6.90;;
5149;SDS011;2593;52.466;13.436;2023-06-10T15:02:50;7.13;;;6.40;;
5149;SDS011;2593;52.466;13.436;2023-06-10T15:05:17;7.43;;;6.03;;
5149;SDS011;2593;52.466;13.436;2023-06-10T15:07:44;12.13;;;6.18;;
5149;SDS011;2593;52.466;13.436;2023-06-10T15:10:11;9.90;;;6.97;;